createdAt,value
2023-04-14T00:00:03.714Z,12.70
2023-04-14T00:02:39.589Z,12.70
2023-04-14T00:05:08.422Z,12.70
2023-04-14T00:07:35.739Z,12.70
2023-04-14T00:10:03.088Z,12.70
2023-04-14T00:12:32.614Z,12.70
2023-04-14T00:14:59.665Z,12.70
2023-04-14T00:17:26.763Z,12.70
2023-04-14T00:19:53.831Z,12.70
2023-04-14T00:22:22.257Z,12.60
2023-04-14T00:24:50.904Z,12.70
2023-04-14T00:27:17.882Z,12.70
2023-04-14T00:29:50.554Z,12.60
2023-04-14T00:32:17.594Z,12.60
2023-04-14T00:34:44.625Z,12.70
2023-04-14T00:37:18.745Z,12.70
2023-04-14T00:39:46.097Z,12.70
2023-04-14T00:42:13.144Z,12.70
2023-04-14T00:44:40.753Z,12.70
2023-04-14T00:47:07.726Z,12.60
2023-04-14T00:49:37.115Z,12.60
2023-04-14T00:52:04.498Z,12.60
2023-04-14T00:54:32.662Z,12.50
2023-04-14T00:56:59.754Z,12.50
2023-04-14T00:59:28.888Z,12.50
2023-04-14T01:01:59.528Z,12.40
2023-04-14T01:04:36.849Z,12.40
2023-04-14T01:07:12.164Z,12.40
2023-04-14T01:09:39.497Z,12.40
2023-04-14T01:12:19.051Z,12.40
2023-04-14T01:15:18.798Z,12.40
2023-04-14T01:17:50.813Z,12.40
2023-04-14T01:20:31.108Z,12.30
2023-04-14T01:23:09.015Z,12.30
2023-04-14T01:25:58.373Z,12.30
2023-04-14T01:28:38.564Z,12.30
2023-04-14T01:31:17.773Z,12.30
2023-04-14T01:33:46.111Z,12.20
2023-04-14T01:36:18.167Z,12.20
2023-04-14T01:38:48.800Z,12.20
2023-04-14T01:41:17.064Z,12.20
2023-04-14T01:43:45.724Z,12.20
2023-04-14T01:46:14.745Z,12.20
2023-04-14T01:48:43.342Z,12.20
2023-04-14T01:51:12.100Z,12.20
2023-04-14T01:53:41.643Z,12.20
2023-04-14T01:56:10.187Z,12.30
2023-04-14T01:58:37.759Z,12.30
2023-04-14T02:01:06.518Z,12.30
2023-04-14T02:03:35.191Z,12.20
2023-04-14T02:06:03.153Z,12.20
2023-04-14T02:08:31.813Z,12.20
2023-04-14T02:10:59.444Z,12.20
2023-04-14T02:13:31.441Z,12.20
2023-04-14T02:15:59.413Z,12.20
2023-04-14T02:18:28.973Z,12.20
2023-04-14T02:20:57.869Z,12.20
2023-04-14T02:23:24.998Z,12.20
2023-04-14T02:25:56.148Z,12.20
2023-04-14T02:28:28.151Z,12.20
2023-04-14T02:30:56.397Z,12.20
2023-04-14T02:33:27.391Z,12.20
2023-04-14T02:36:14.647Z,12.10
2023-04-14T02:38:59.746Z,12.10
2023-04-14T02:41:27.871Z,12.10
2023-04-14T02:44:04.289Z,12.10
2023-04-14T02:46:33.560Z,12.10
2023-04-14T02:49:06.237Z,12.10
2023-04-14T02:51:38.037Z,12.00
2023-04-14T02:54:06.061Z,12.00
2023-04-14T02:56:43.114Z,12.00
2023-04-14T02:59:10.339Z,12.00
2023-04-14T03:01:47.436Z,12.00
2023-04-14T03:04:15.543Z,12.10
2023-04-14T03:06:43.446Z,12.00
2023-04-14T03:09:12.149Z,12.00
2023-04-14T03:11:41.178Z,12.00
2023-04-14T03:14:08.791Z,12.00
2023-04-14T03:16:39.521Z,12.00
2023-04-14T03:19:08.323Z,12.00
2023-04-14T03:21:38.790Z,12.00
2023-04-14T03:24:07.168Z,12.00
2023-04-14T03:26:37.026Z,11.90
2023-04-14T03:29:06.651Z,11.90
2023-04-14T03:31:37.222Z,11.90
2023-04-14T03:34:07.046Z,11.90
2023-04-14T03:36:38.971Z,11.90
2023-04-14T03:39:07.125Z,11.80
2023-04-14T03:41:38.906Z,11.80
2023-04-14T03:44:07.666Z,11.90
2023-04-14T03:46:34.647Z,11.80
2023-04-14T03:49:06.820Z,11.80
2023-04-14T03:51:35.147Z,11.80
2023-04-14T03:54:02.855Z,11.80
2023-04-14T03:56:31.089Z,11.80
2023-04-14T03:58:58.967Z,11.90
2023-04-14T04:01:27.114Z,11.90
2023-04-14T04:03:55.688Z,11.90
2023-04-14T04:06:23.862Z,12.00
2023-04-14T04:08:51.590Z,11.90
2023-04-14T04:11:20.903Z,11.90
2023-04-14T04:13:51.856Z,11.90
2023-04-14T04:16:21.430Z,11.90
2023-04-14T04:18:49.120Z,11.90
2023-04-14T04:21:19.756Z,11.90
2023-04-14T04:23:49.286Z,11.90
2023-04-14T04:26:17.032Z,11.80
2023-04-14T04:28:44.951Z,11.90
2023-04-14T04:31:14.103Z,11.90
2023-04-14T04:33:41.726Z,11.90
2023-04-14T04:36:13.273Z,11.90
2023-04-14T04:38:43.135Z,11.80
2023-04-14T04:41:25.148Z,11.80
2023-04-14T04:43:53.132Z,11.80
2023-04-14T04:46:29.653Z,11.80
2023-04-14T04:48:58.296Z,11.80
2023-04-14T04:51:26.357Z,11.80
2023-04-14T04:53:53.317Z,11.80
2023-04-14T04:56:21.606Z,11.80
2023-04-14T04:58:48.772Z,11.80
2023-04-14T05:01:16.939Z,11.80
2023-04-14T05:03:44.104Z,11.90
2023-04-14T05:06:11.210Z,11.90
2023-04-14T05:08:38.435Z,11.90
2023-04-14T05:11:06.129Z,11.90
2023-04-14T05:13:33.253Z,12.00
2023-04-14T05:16:07.199Z,12.00
2023-04-14T05:18:34.738Z,11.90
2023-04-14T05:21:02.918Z,11.90
2023-04-14T05:23:30.144Z,11.80
2023-04-14T05:26:07.234Z,11.80
2023-04-14T05:28:44.882Z,11.80
2023-04-14T05:31:14.486Z,11.90
2023-04-14T05:33:41.592Z,11.90
2023-04-14T05:36:08.577Z,12.00
2023-04-14T05:38:41.892Z,11.90
2023-04-14T05:41:11.217Z,12.00
2023-04-14T05:43:38.667Z,12.00
2023-04-14T05:46:05.819Z,12.10
2023-04-14T05:48:33.676Z,12.20
2023-04-14T05:51:00.885Z,12.30
2023-04-14T05:53:28.036Z,12.40
2023-04-14T05:55:57.274Z,12.30
2023-04-14T05:58:26.712Z,12.30
2023-04-14T06:00:53.844Z,12.40
2023-04-14T06:03:21.239Z,12.40
2023-04-14T06:05:48.634Z,12.50
2023-04-14T06:08:15.556Z,12.60
2023-04-14T06:10:42.660Z,12.80
2023-04-14T06:13:09.765Z,12.80
2023-04-14T06:15:38.178Z,12.80
2023-04-14T06:18:05.130Z,12.80
2023-04-14T06:20:32.730Z,12.80
2023-04-14T06:23:00.969Z,12.90
2023-04-14T06:25:28.118Z,13.00
2023-04-14T06:27:55.103Z,13.10
2023-04-14T06:30:22.410Z,13.10
2023-04-14T06:32:54.284Z,13.00
2023-04-14T06:35:32.508Z,13.00
2023-04-14T06:38:00.545Z,12.90
2023-04-14T06:40:27.920Z,12.90
2023-04-14T06:42:54.939Z,13.10
2023-04-14T06:45:22.162Z,13.00
2023-04-14T06:47:49.177Z,13.00
2023-04-14T06:50:16.579Z,13.10
2023-04-14T06:52:43.464Z,13.00
2023-04-14T06:55:10.966Z,13.00
2023-04-14T06:57:37.925Z,13.00
2023-04-14T07:00:07.380Z,13.00
2023-04-14T07:02:34.470Z,13.00
2023-04-14T07:05:01.900Z,13.00
2023-04-14T07:07:28.886Z,13.00
2023-04-14T07:09:55.931Z,13.00
2023-04-14T07:12:23.074Z,13.20
2023-04-14T07:14:53.080Z,13.20
2023-04-14T07:17:20.231Z,13.20
2023-04-14T07:19:47.586Z,13.10
2023-04-14T07:22:14.597Z,13.00
2023-04-14T07:24:41.851Z,13.10
2023-04-14T07:27:15.669Z,13.10
2023-04-14T07:29:43.162Z,13.20
2023-04-14T07:32:12.086Z,13.20
2023-04-14T07:34:44.038Z,13.20
2023-04-14T07:37:11.385Z,13.30
2023-04-14T07:39:40.827Z,13.30
2023-04-14T07:42:07.810Z,13.20
2023-04-14T07:44:34.920Z,13.30
2023-04-14T07:47:01.939Z,13.10
2023-04-14T07:49:29.127Z,13.10
2023-04-14T07:51:57.050Z,13.20
2023-04-14T07:54:24.453Z,13.20
2023-04-14T07:56:53.801Z,13.20
2023-04-14T07:59:21.119Z,13.10
2023-04-14T08:01:48.692Z,13.10
2023-04-14T08:04:16.018Z,13.00
2023-04-14T08:06:43.019Z,13.10
2023-04-14T08:09:10.065Z,13.10
2023-04-14T08:11:36.969Z,13.20
2023-04-14T08:14:13.882Z,13.30
2023-04-14T08:16:41.888Z,13.40
2023-04-14T08:19:08.964Z,13.40
2023-04-14T08:21:36.285Z,13.50
2023-04-14T08:24:03.340Z,13.40
2023-04-14T08:28:57.697Z,13.60
2023-04-14T08:31:25.885Z,13.80
2023-04-14T08:33:53.207Z,14.00
2023-04-14T08:36:20.574Z,13.80
2023-04-14T08:38:47.728Z,13.90
2023-04-14T08:41:15.938Z,14.20
2023-04-14T08:43:43.101Z,14.60
2023-04-14T08:46:13.767Z,14.50
2023-04-14T08:48:41.013Z,14.60
2023-04-14T08:51:14.166Z,14.60
2023-04-14T08:53:43.860Z,14.60
2023-04-14T08:56:11.952Z,14.70
2023-04-14T08:58:39.766Z,14.70
2023-04-14T09:01:07.978Z,14.80
2023-04-14T09:03:35.362Z,14.80
2023-04-14T09:06:02.867Z,15.00
2023-04-14T09:08:34.165Z,14.90
2023-04-14T09:11:02.186Z,14.70
2023-04-14T09:13:29.764Z,14.90
2023-04-14T09:15:57.495Z,15.00
2023-04-14T09:18:25.389Z,15.10
2023-04-14T09:21:30.471Z,15.00
2023-04-14T09:23:43.045Z,15.10
2023-04-14T09:26:10.721Z,15.20
2023-04-14T09:28:37.811Z,15.50
2023-04-14T09:31:05.300Z,15.60
2023-04-14T09:33:32.720Z,15.60
2023-04-14T09:35:59.839Z,15.70
2023-04-14T09:38:39.353Z,15.90
2023-04-14T09:41:06.697Z,16.10
2023-04-14T09:43:33.806Z,16.30
2023-04-14T09:48:28.838Z,16.60
2023-04-14T09:50:57.857Z,17.00
2023-04-14T09:53:34.500Z,18.00
2023-04-14T09:56:04.786Z,18.40
2023-04-14T09:58:38.796Z,18.80
2023-04-14T10:01:10.991Z,19.30
2023-04-14T10:03:39.403Z,19.60
2023-04-14T10:06:07.491Z,19.70
2023-04-14T10:08:38.415Z,20.40
2023-04-14T10:11:21.785Z,20.90
2023-04-14T10:13:53.644Z,20.90
2023-04-14T10:16:21.661Z,20.20
2023-04-14T10:18:48.766Z,19.50
2023-04-14T10:21:16.302Z,19.40
2023-04-14T10:23:43.584Z,19.50
2023-04-14T10:26:14.516Z,19.60
2023-04-14T10:28:54.449Z,19.20
2023-04-14T10:31:37.009Z,19.10
2023-04-14T10:34:07.702Z,19.50
2023-04-14T10:36:37.405Z,20.40
2023-04-14T10:39:05.824Z,21.50
2023-04-14T10:41:47.770Z,21.60
2023-04-14T10:44:32.249Z,20.90
2023-04-14T10:49:30.532Z,20.00
2023-04-14T10:52:02.023Z,20.00
2023-04-14T10:54:29.157Z,19.70
2023-04-14T10:57:15.544Z,19.20
2023-04-14T10:59:43.686Z,19.00
2023-04-14T11:02:28.164Z,18.70
2023-04-14T11:05:06.987Z,18.40
2023-04-14T11:07:38.792Z,18.20
2023-04-14T11:10:24.331Z,18.10
2023-04-14T11:13:04.646Z,18.00
2023-04-14T11:15:46.920Z,17.70
2023-04-14T11:18:17.048Z,17.70
2023-04-14T11:20:44.580Z,17.70
2023-04-14T11:23:15.279Z,17.40
2023-04-14T11:25:42.549Z,17.40
2023-04-14T11:28:09.502Z,17.20
2023-04-14T11:30:36.578Z,16.90
2023-04-14T11:33:03.649Z,16.60
2023-04-14T11:35:31.485Z,16.40
2023-04-14T11:37:59.614Z,16.30
2023-04-14T11:40:27.775Z,16.10
2023-04-14T11:42:58.265Z,16.20
2023-04-14T11:45:29.224Z,16.20
2023-04-14T11:48:04.019Z,16.10
2023-04-14T11:50:32.633Z,15.90
2023-04-14T11:53:00.207Z,15.90
2023-04-14T11:55:27.865Z,15.80
2023-04-14T11:57:55.532Z,15.80
2023-04-14T12:00:23.035Z,15.80
2023-04-14T12:02:50.827Z,15.90
2023-04-14T12:05:19.898Z,16.00
2023-04-14T12:07:48.165Z,16.00
2023-04-14T12:10:15.818Z,16.10
2023-04-14T12:12:42.796Z,16.10
2023-04-14T12:15:10.406Z,16.20
2023-04-14T12:17:37.470Z,16.20
2023-04-14T12:20:05.622Z,16.30
2023-04-14T12:22:32.726Z,16.20
2023-04-14T12:24:59.954Z,16.10
2023-04-14T12:27:27.734Z,16.10
2023-04-14T12:29:55.156Z,16.10
2023-04-14T12:32:22.952Z,16.30
2023-04-14T12:34:54.432Z,16.40
2023-04-14T12:37:24.931Z,16.50
2023-04-14T12:39:53.000Z,16.40
2023-04-14T12:42:19.989Z,16.30
2023-04-14T12:45:03.105Z,16.40
2023-04-14T12:47:31.405Z,16.50
2023-04-14T12:49:59.365Z,16.50
2023-04-14T12:52:39.603Z,16.50
2023-04-14T12:55:07.932Z,16.60
2023-04-14T12:57:35.077Z,16.70
2023-04-14T13:00:02.455Z,16.70
2023-04-14T13:02:30.359Z,16.80
2023-04-14T13:04:57.869Z,16.90
2023-04-14T13:07:27.102Z,17.10
2023-04-14T13:09:54.122Z,17.00
2023-04-14T13:12:21.210Z,17.00
2023-04-14T13:14:48.188Z,17.10
2023-04-14T13:17:15.578Z,17.20
2023-04-14T13:19:42.585Z,17.00
2023-04-14T13:22:09.797Z,17.00
2023-04-14T13:24:36.939Z,16.90
2023-04-14T13:27:04.096Z,16.80
2023-04-14T13:29:34.658Z,16.70
2023-04-14T13:32:01.789Z,16.80
2023-04-14T13:34:28.862Z,17.00
2023-04-14T13:36:58.591Z,17.00
2023-04-14T13:39:25.732Z,17.00
2023-04-14T13:41:52.802Z,16.80
2023-04-14T13:44:19.719Z,16.60
2023-04-14T13:46:47.131Z,16.60
2023-04-14T13:49:14.033Z,16.50
2023-04-14T13:51:41.100Z,16.40
2023-04-14T13:54:08.444Z,16.20
2023-04-14T13:56:35.892Z,16.10
2023-04-14T13:59:02.983Z,16.10
2023-04-14T14:01:30.482Z,16.10
2023-04-14T14:03:57.922Z,16.00
2023-04-14T14:06:26.613Z,15.90
2023-04-14T14:09:06.038Z,15.70
2023-04-14T14:11:35.019Z,15.70
2023-04-14T14:14:02.124Z,15.80
2023-04-14T14:16:36.739Z,15.90
2023-04-14T14:19:07.369Z,15.90
2023-04-14T14:21:34.769Z,16.10
2023-04-14T14:24:02.091Z,16.10
2023-04-14T14:26:29.544Z,16.20
2023-04-14T14:28:56.727Z,16.20
2023-04-14T14:31:24.145Z,16.10
2023-04-14T14:33:51.329Z,16.00
2023-04-14T14:36:18.458Z,16.00
2023-04-14T14:38:45.536Z,16.00
2023-04-14T14:41:13.354Z,16.00
2023-04-14T14:43:41.429Z,15.90
2023-04-14T14:46:10.231Z,15.80
2023-04-14T14:48:41.837Z,15.80
2023-04-14T14:51:10.185Z,15.80
2023-04-14T14:53:39.173Z,15.70
2023-04-14T14:56:07.863Z,15.70
2023-04-14T14:58:36.592Z,15.60
2023-04-14T15:01:06.677Z,15.60
2023-04-14T15:03:37.298Z,15.50
2023-04-14T15:06:07.604Z,15.50
2023-04-14T15:08:35.592Z,15.40
2023-04-14T15:11:04.084Z,15.40
2023-04-14T15:13:33.362Z,15.30
2023-04-14T15:16:04.597Z,15.30
2023-04-14T15:18:32.082Z,15.30
2023-04-14T15:20:59.253Z,15.20
2023-04-14T15:23:26.209Z,15.20
2023-04-14T15:25:53.324Z,15.20
2023-04-14T15:28:20.318Z,15.30
2023-04-14T15:30:47.335Z,15.30
2023-04-14T15:33:14.596Z,15.40
2023-04-14T15:35:42.337Z,15.50
2023-04-14T15:38:09.389Z,15.40
2023-04-14T15:40:38.445Z,15.40
2023-04-14T15:43:05.749Z,15.40
2023-04-14T15:45:33.106Z,15.30
2023-04-14T15:48:00.540Z,15.30
2023-04-14T15:50:27.616Z,15.20
2023-04-14T15:52:55.977Z,15.10
2023-04-14T15:55:23.134Z,15.10
2023-04-14T15:57:51.018Z,15.10
2023-04-14T16:00:18.283Z,15.00
2023-04-14T16:02:46.598Z,15.00
2023-04-14T16:05:13.749Z,15.00
2023-04-14T16:07:40.921Z,14.90
2023-04-14T16:10:08.695Z,14.80
2023-04-14T16:12:36.722Z,14.80
2023-04-14T16:15:07.222Z,14.80
2023-04-14T16:17:34.685Z,14.90
2023-04-14T16:20:02.140Z,14.80
2023-04-14T16:22:29.721Z,14.90
2023-04-14T16:24:56.870Z,14.80
2023-04-14T16:27:24.234Z,14.90
2023-04-14T16:29:51.539Z,14.80
2023-04-14T16:32:18.810Z,14.80
2023-04-14T16:34:45.919Z,14.80
2023-04-14T16:37:13.271Z,14.80
2023-04-14T16:39:41.343Z,14.70
2023-04-14T16:42:09.573Z,14.60
2023-04-14T16:44:37.153Z,14.60
2023-04-14T16:47:04.483Z,14.60
2023-04-14T16:49:31.824Z,14.60
2023-04-14T16:52:00.417Z,14.50
2023-04-14T16:54:27.779Z,14.50
2023-04-14T16:56:54.959Z,14.40
2023-04-14T16:59:22.246Z,14.40
2023-04-14T17:01:49.696Z,14.40
2023-04-14T17:04:17.158Z,14.40
2023-04-14T17:06:46.353Z,14.40
2023-04-14T17:09:13.289Z,14.30
2023-04-14T17:11:42.220Z,14.30
2023-04-14T17:14:09.393Z,14.30
2023-04-14T17:16:38.177Z,14.20
2023-04-14T17:19:05.157Z,14.20
2023-04-14T17:21:32.213Z,14.10
2023-04-14T17:23:59.414Z,14.00
2023-04-14T17:26:27.186Z,14.00
2023-04-14T17:28:54.394Z,13.90
2023-04-14T17:31:21.738Z,13.90
2023-04-14T17:33:48.952Z,13.80
2023-04-14T17:36:16.655Z,13.80
2023-04-14T17:38:44.776Z,13.70
2023-04-14T17:41:12.900Z,13.70
2023-04-14T17:43:41.916Z,13.60
2023-04-14T17:46:22.721Z,13.60
2023-04-14T17:48:50.644Z,13.60
2023-04-14T17:51:18.024Z,13.60
2023-04-14T17:53:45.137Z,13.50
2023-04-14T17:56:12.959Z,13.50
2023-04-14T17:58:40.068Z,13.40
2023-04-14T18:01:08.135Z,13.40
2023-04-14T18:03:35.254Z,13.30
2023-04-14T18:06:02.627Z,13.40
2023-04-14T18:08:29.585Z,13.30
2023-04-14T18:10:58.436Z,13.20
2023-04-14T18:13:28.562Z,13.20
2023-04-14T18:15:55.821Z,13.20
2023-04-14T18:18:25.317Z,13.10
2023-04-14T18:20:52.861Z,13.10
2023-04-14T18:23:20.337Z,13.00
2023-04-14T18:28:17.729Z,13.00
2023-04-14T18:30:52.410Z,12.90
2023-04-14T18:33:19.834Z,12.90
2023-04-14T18:35:53.931Z,12.80
2023-04-14T18:38:21.436Z,12.80
2023-04-14T18:40:49.075Z,12.80
2023-04-14T18:43:16.464Z,12.80
2023-04-14T18:45:47.436Z,12.80
2023-04-14T18:48:15.491Z,12.70
2023-04-14T18:50:43.751Z,12.70
2023-04-14T18:53:11.218Z,12.70
2023-04-14T18:55:44.797Z,12.70
2023-04-14T18:58:13.470Z,12.70
2023-04-14T19:00:40.554Z,12.70
2023-04-14T19:03:08.843Z,12.70
2023-04-14T19:05:37.142Z,12.70
2023-04-14T19:08:04.474Z,12.70
2023-04-14T19:10:31.682Z,12.70
2023-04-14T19:12:58.785Z,12.60
2023-04-14T19:15:28.908Z,12.60
2023-04-14T19:17:55.995Z,12.60
2023-04-14T19:20:24.202Z,12.70
2023-04-14T19:22:51.520Z,12.70
2023-04-14T19:25:18.602Z,12.70
2023-04-14T19:27:45.612Z,12.70
2023-04-14T19:30:12.785Z,12.70
2023-04-14T19:32:40.610Z,12.60
2023-04-14T19:35:07.858Z,12.60
2023-04-14T19:37:35.341Z,12.60
2023-04-14T19:40:03.732Z,12.50
2023-04-14T19:42:31.105Z,12.50
2023-04-14T19:44:58.119Z,12.40
2023-04-14T19:47:25.323Z,12.50
2023-04-14T19:49:53.574Z,12.50
2023-04-14T19:52:20.770Z,12.40
2023-04-14T19:54:47.736Z,12.40
2023-04-14T19:57:14.876Z,12.40
2023-04-14T19:59:41.752Z,12.40
2023-04-14T20:02:10.798Z,12.30
2023-04-14T20:04:38.055Z,12.30
2023-04-14T20:07:05.371Z,12.20
2023-04-14T20:09:32.405Z,12.20
2023-04-14T20:12:00.495Z,12.20
2023-04-14T20:16:56.591Z,12.10
2023-04-14T20:19:24.600Z,12.10
2023-04-14T20:21:51.992Z,12.10
2023-04-14T20:24:18.995Z,12.10
2023-04-14T20:26:46.756Z,12.20
2023-04-14T20:29:13.773Z,12.20
2023-04-14T20:31:42.754Z,12.20
2023-04-14T20:34:10.432Z,12.20
2023-04-14T20:36:37.910Z,12.10
2023-04-14T20:39:06.193Z,12.10
2023-04-14T20:41:34.028Z,12.00
2023-04-14T20:44:01.426Z,12.00
2023-04-14T20:46:28.949Z,12.00
2023-04-14T20:48:56.827Z,11.80
2023-04-14T20:51:23.796Z,11.80
2023-04-14T20:53:50.945Z,11.80
2023-04-14T20:56:18.038Z,11.70
2023-04-14T20:58:45.673Z,11.70
2023-04-14T21:01:12.762Z,11.70
2023-04-14T21:03:40.291Z,11.70
2023-04-14T21:06:07.322Z,11.60
2023-04-14T21:08:34.646Z,11.60
2023-04-14T21:11:15.068Z,11.60
2023-04-14T21:15:28.207Z,11.50
2023-04-14T21:16:33.046Z,11.50
2023-04-14T21:19:01.547Z,11.50
2023-04-14T21:21:29.243Z,11.40
2023-04-14T21:23:56.903Z,11.40
2023-04-14T21:26:24.119Z,11.40
2023-04-14T21:28:51.378Z,11.40
2023-04-14T21:31:18.533Z,11.40
2023-04-14T21:33:46.103Z,11.30
2023-04-14T21:36:13.353Z,11.30
2023-04-14T21:38:40.512Z,11.20
2023-04-14T21:41:10.899Z,11.20
2023-04-14T21:43:38.882Z,11.20
2023-04-14T21:46:05.962Z,11.20
2023-04-14T21:48:33.103Z,11.20
2023-04-14T21:51:03.371Z,11.20
2023-04-14T21:53:31.432Z,11.20
2023-04-14T21:56:09.733Z,11.20
2023-04-14T21:58:38.201Z,11.20
2023-04-14T22:01:05.567Z,11.20
2023-04-14T22:03:33.311Z,11.10
2023-04-14T22:06:00.420Z,11.10
2023-04-14T22:08:27.426Z,11.10
2023-04-14T22:10:55.024Z,11.10
2023-04-14T22:13:22.092Z,11.10
2023-04-14T22:15:50.155Z,11.10
2023-04-14T22:18:17.373Z,11.10
2023-04-14T22:20:45.274Z,11.00
2023-04-14T22:23:13.355Z,11.00
2023-04-14T22:25:40.417Z,11.00
2023-04-14T22:28:09.747Z,11.00
2023-04-14T22:30:36.662Z,11.00
2023-04-14T22:33:03.719Z,11.00
2023-04-14T22:35:31.094Z,11.00
2023-04-14T22:37:58.160Z,11.00
2023-04-14T22:40:25.160Z,11.00
2023-04-14T22:42:52.181Z,10.90
2023-04-14T22:45:19.107Z,10.90
2023-04-14T22:47:46.669Z,10.90
2023-04-14T22:50:13.668Z,10.90
2023-04-14T22:52:41.151Z,10.90
2023-04-14T22:55:08.329Z,10.90
2023-04-14T22:57:35.454Z,10.90
2023-04-14T23:00:09.072Z,10.90
2023-04-14T23:02:36.747Z,10.90
2023-04-14T23:05:04.403Z,10.90
2023-04-14T23:07:31.794Z,10.90
2023-04-14T23:09:58.765Z,10.80
2023-04-14T23:12:26.160Z,10.90
2023-04-14T23:14:53.327Z,10.90
2023-04-14T23:17:20.358Z,10.80
2023-04-14T23:19:47.402Z,10.90
2023-04-14T23:22:15.423Z,10.80
2023-04-14T23:24:42.990Z,10.80
2023-04-14T23:27:10.093Z,10.80
2023-04-14T23:29:37.743Z,10.80
2023-04-14T23:32:06.309Z,10.70
2023-04-14T23:34:33.224Z,10.70
2023-04-14T23:37:00.301Z,10.70
2023-04-14T23:39:27.333Z,10.60
2023-04-14T23:41:54.586Z,10.60
2023-04-14T23:44:22.827Z,10.70
2023-04-14T23:46:50.994Z,10.70
2023-04-14T23:49:24.277Z,10.60
2023-04-14T23:52:01.771Z,10.60
2023-04-14T23:54:30.998Z,10.50
2023-04-14T23:56:58.284Z,10.40
2023-04-14T23:59:27.198Z,10.20
